• Join FlightAware (Why Join?)
  • Login
  • US Flag 
06:35PM EDT


 

Airport Tracker/Info


-or-


 

Live Flight TrackerFlight Track Log ✈ N468AM ✈ 09-Sep-2013 ✈ KDPA - KSSI

Flight Track Log - Related Links

Times and Time Zones

All times are in EDT time to prevent confusion due to time zone crossing. See the N468AM flight status page for this flight to view local times or setup timezone preferences in your user account.

Time Position Orientation Groundspeed Altitude Reporting Facility
EDT Latitude Longitude Course Direction KTS MPH feet Rate Location/Type
10:32AM 41.8667 -88.2667 166° South 195 224 2,600  Level Chicago TRACON
10:33AM 41.8000 -88.2500 169° South 249 287 4,900 1,140 Climbing Chicago TRACON
10:34AM 41.7333 -88.1833 143° Southeast 301 346 5,000 420 Climbing Chicago TRACON
10:35AM 41.6911 -88.0775 118° Southeast 298 343 5,900 1,500 Climbing Chicago Center
10:36AM 41.6539 -87.9769 116° Southeast 301 346 8,400 2,160 Climbing Chicago Center
10:37AM 41.2926 -87.7909 166° South  Level Estimated
10:37AM 41.6122 -87.8747 119° Southeast 308 354 10,400  Level Chicago Center
10:38AM 41.5572 -87.7750 126° Southeast 337 388 12,000 960 Climbing Chicago Center
10:39AM 41.4508 -87.7194 159° South 348 400 12,500 960 Climbing Chicago Center
10:40AM 41.3503 -87.6811 164° South 369 425 14,000 1,440 Climbing Chicago Center
10:41AM 41.2453 -87.6444 165° South 385 443 15,500 1,440 Climbing Chicago Center
10:42AM 41.1403 -87.5981 162° South 394 453 17,000 1,440 Climbing Chicago Center
10:43AM 41.0331 -87.5525 162° South 402 463 18,500 1,440 Climbing Chicago Center
10:44AM 40.9264 -87.5069 162° South 403 464 20,000 1,560 Climbing Chicago Center
10:45AM 40.7992 -87.4517 162° South 402 463 21,800 1,560 Climbing Chicago Center
10:46AM 40.6900 -87.4108 164° South 406 467 23,300 1,380 Climbing Chicago Center
10:47AM 40.5842 -87.3658 162° South 403 464 24,700 1,140 Climbing Chicago Center
10:48AM 40.4761 -87.3208 162° South 406 467 25,700 960 Climbing Chicago Center
10:49AM 40.3669 -87.2761 163° South 416 479 26,700 960 Climbing Chicago Center
10:50AM 40.2556 -87.2281 162° South 422 486 27,700 1,020 Climbing Chicago Center
10:51AM 40.1217 -87.1708 162° South 424 488 28,900 1,020 Climbing Chicago Center
10:52AM 40.0503 -87.1439 164° South 428 493 29,500 840 Climbing Indianapolis Center
10:53AM 39.9428 -87.0772 155° Southeast 437 503 30,400 900 Climbing Indianapolis Center
10:54AM 39.8494 -86.9808 142° Southeast 432 497 31,400 1,020 Climbing Indianapolis Center
10:55AM 39.7364 -86.8608 141° Southeast 441 507 32,600 1,020 Climbing Indianapolis Center
10:56AM 39.6375 -86.7689 144° Southeast 440 506 33,600 960 Climbing Indianapolis Center
10:57AM 39.5353 -86.6814 147° Southeast 444 511 34,600 960 Climbing Indianapolis Center
10:58AM 39.4317 -86.5942 147° Southeast 448 516 35,600 1,020 Climbing Indianapolis Center
10:59AM 39.3072 -86.4883 147° Southeast 450 518 36,800 960 Climbing Indianapolis Center
11:00AM 39.2031 -86.4006 147° Southeast 452 520 37,700 900 Climbing Indianapolis Center
11:01AM 39.0978 -86.3119 147° Southeast 454 522 38,700 960 Climbing Indianapolis Center
11:02AM 38.9917 -86.2239 147° Southeast 456 525 39,700 960 Climbing Indianapolis Center
11:03AM 38.8853 -86.1344 147° Southeast 459 528 40,700 600 Climbing Indianapolis Center
11:04AM 38.7558 -86.0358 149° Southeast 457 526 41,000 120 Climbing Indianapolis Center
11:05AM 38.6375 -85.9558 152° Southeast 469 540 41,000  Level Indianapolis Center
11:06AM 38.5167 -85.8750 152° Southeast 479 551 41,000  Level Indianapolis Center
11:07AM 38.3978 -85.7953 152° Southeast 479 551 41,000  Level Indianapolis Center
11:08AM 38.2800 -85.7153 152° Southeast 476 548 41,000  Level Indianapolis Center
11:09AM 38.1614 -85.6358 152° Southeast 480 552 41,000  Level Indianapolis Center
11:11AM 38.0417 -85.5567 152° Southeast 481 554 41,000  Level Indianapolis Center
11:12AM 37.9231 -85.4778 152° Southeast 477 549 41,000  Level Indianapolis Center
11:13AM 37.7967 -85.3942 152° Southeast 480 552 41,000  Level Indianapolis Center
11:14AM 37.6583 -85.3025 152° Southeast 482 555 41,000  Level Indianapolis Center
11:15AM 37.5417 -85.2267 153° Southeast 475 547 41,000  Level Indianapolis Center
11:16AM 37.4250 -85.1500 152° Southeast 472 543 41,000  Level Indianapolis Center
11:17AM 37.3078 -85.0728 152° Southeast 474 545 41,000  Level Indianapolis Center
11:18AM 37.1886 -84.9961 153° Southeast 480 552 41,000  Level Indianapolis Center
11:19AM 37.0708 -84.9197 153° Southeast 478 550 41,000  Level Indianapolis Center
11:20AM 36.9444 -84.8381 153° Southeast 482 555 41,000  Level Indianapolis Center
11:21AM 36.8289 -84.7642 153° Southeast 468 539 41,000  Level Indianapolis Center
11:22AM 36.7119 -84.6889 153° Southeast 470 541 41,000  Level Indianapolis Center
11:23AM 36.5733 -84.5997 153° Southeast 467 537 41,000  Level Indianapolis Center
11:24AM 36.4558 -84.5247 153° Southeast 471 542 41,000  Level Indianapolis Center
11:25AM 36.3375 -84.4503 153° Southeast 473 544 41,000  Level Indianapolis Center
11:26AM 36.2197 -84.3761 153° Southeast 472 543 41,000  Level Indianapolis Center
11:27AM 36.1011 -84.3011 153° Southeast 474 545 41,000  Level Indianapolis Center
11:28AM 35.9803 -84.2256 153° Southeast 479 551 41,000  Level Indianapolis Center
11:29AM 35.8581 -84.1497 153° Southeast 485 558 41,000  Level Indianapolis Center
11:30AM 35.7361 -84.0736 153° Southeast 487 560 41,000  Level Indianapolis Center
11:31AM 35.6139 -83.9983 153° Southeast 489 563 41,000  Level Indianapolis Center
11:32AM 35.4700 -83.9111 154° Southeast 486 559 41,000  Level Atlanta Center
11:33AM 35.3489 -83.8375 154° Southeast 486 559 41,000  Level Atlanta Center
11:34AM 35.2278 -83.7617 153° Southeast 486 559 41,000  Level Atlanta Center
11:35AM 35.1086 -83.6883 153° Southeast 486 559 41,000  Level Atlanta Center
11:36AM 34.9914 -83.6153 153° Southeast 486 559 41,000  Level Atlanta Center
11:37AM 34.8722 -83.5478 155° Southeast 486 559 41,000  Level Atlanta Center
11:38AM 34.7489 -83.4725 153° Southeast 486 559 41,000  Level Atlanta Center
11:39AM 34.6147 -83.3850 152° Southeast 486 559 41,000  Level Atlanta Center
11:40AM 34.4956 -83.3128 153° Southeast 486 559 41,000  Level Atlanta Center
11:41AM 34.3739 -83.2436 155° Southeast 486 559 41,000  Level Atlanta Center
11:42AM 34.2503 -83.1667 153° Southeast 486 559 41,000 -120 Level Atlanta Center
11:43AM 34.1372 -83.1153 159° South 486 559 40,800 -420 Descending Atlanta Center
11:44AM 34.0094 -83.0689 163° South 486 559 40,200 -420 Descending Atlanta Center
11:45AM 33.8797 -83.0203 163° South 489 563 40,000 -120 Descending Atlanta Center
11:46AM 33.7500 -82.9719 163° South 484 557 40,000  Level Atlanta Center
11:47AM 33.6181 -82.9236 163° South 484 557 40,000  Level Atlanta Center
11:48AM 33.4756 -82.8708 163° South 484 557 40,000 -720 Level Atlanta Center
11:49AM 33.3436 -82.8228 163° South 489 563 38,600 -1,440 Descending Atlanta Center
11:50AM 33.2136 -82.7775 164° South 489 563 37,200 -1,500 Descending Atlanta Center
11:51AM 33.0839 -82.7272 162° South 489 563 35,600 -1,560 Descending Atlanta Center
11:52AM 32.9517 -82.6797 163° South 489 563 34,100 -1,380 Descending Atlanta Center
11:53AM 32.8383 -82.6172 155° Southeast 489 563 32,900 -1,380 Descending Atlanta Center
11:54AM 32.7164 -82.5478 154° Southeast 489 563 31,400 -1,620 Descending Atlanta Center
11:55AM 32.5964 -82.4658 150° Southeast 489 563 29,700 -1,800 Descending Atlanta Center
11:56AM 32.4828 -82.3817 148° Southeast 484 557 27,900 -1,920 Descending Atlanta Center
11:57AM 32.3447 -82.2803 148° Southeast 464 534 25,700 -1,980 Descending Jacksonville Center
11:58AM 32.2439 -82.2025 147° Southeast 464 534 23,700 -2,460 Descending Jacksonville Center
11:59AM 32.1225 -82.1100 147° Southeast 469 540 20,800 -2,700 Descending Jacksonville Center
12:00PM 32.0133 -82.0278 147° Southeast 469 540 18,400 -2,400 Descending Jacksonville Center
12:01PM 31.9061 -81.9478 148° Southeast 463 533 16,100 -2,400 Descending Jacksonville Center
12:02PM 31.8139 -81.8806 148° Southeast 450 518 13,700 -2,460 Descending Jacksonville Center
12:03PM 31.7150 -81.8058 147° Southeast 434 499 11,200 -2,100 Descending Jacksonville Center
12:04PM 31.6247 -81.7386 148° Southeast 370 426 9,500 -1,620 Descending Jacksonville Center
12:05PM 31.5553 -81.6881 148° Southeast 302 348 8,000 -1,500 Descending Jacksonville Center
12:06PM 31.5067 -81.6328 136° Southeast 283 326 6,500 -1,560 Descending Jacksonville Center
12:07PM 31.4600 -81.5603 127° Southeast 277 319 5,000 -1,320 Descending Jacksonville Center
12:08PM 31.4072 -81.4978 135° Southeast 254 292 3,900 -1,080 Descending Jacksonville Center
12:09PM 31.3442 -81.4672 158° South 244 281 2,900 -1,020 Descending Jacksonville Center